ěÝzenÝ letovÚho provozu ╚eskÚ republiky
Letiste: LKTB Aktualizace: 06.07.2022 06:34:32  UTC
 METAR LKTB 06.07. 06:30 RRA
METAR LKTB 060630Z 28009KT CAVOK 18/13 Q1019 NOSIG=
 TAF LKTB 06.07. 05:00 ...
TAF LKTB 060500Z 0606/0712 29008KT 9999 SCT040      TEMPO 0606/0618 8000 SHRA SCT035TCU      PROB40 TEMPO 0607/0617 31012G22KT 4000 TSRA SCT030CB      TEMPO 0710/0712 -SHRA BKN035=